TIST/STT METAR and TAF weather

Enter ICAO airport designator
Station Type Date Time Source
TIST METAR 2022/06/26 08:53 UTC NOAA

TIST 260853Z AUTO 11009KT 10SM CLR 27/23 A3001 RMK AO2 SLP164 T02720228 53002 $


Station Type Date Time Source
TIST Decoded METAR 2022/06/26 08:53 UTC NOAA

Charlotte Amalie St. Thomas, Cyril E. King Airport, Virgin Islands (TIST) 18-20N 064-59W
Jun 26, 2022 - 04:53 AM EDT / 2022.06.26 0853 UTC
Wind: from the ESE (110 degrees) at 10 MPH (9 KT):0
Visibility: 10 mile(s):0
Sky conditions: clear
Temperature: 81.0 F (27.2 C)
Dew Point: 73.0 F (22.8 C)
Relative Humidity: 76%
Pressure (altimeter): 30.01 in. Hg (1016 hPa)
Pressure tendency: 0.01 inches (0.2 hPa) higher than three hours ago
ob: TIST 260853Z AUTO 11009KT 10SM CLR 27/23 A3001 RMK AO2 SLP164 T02720228 53002
cycle: 9

Station Type Date Time Source
TIST TAF 2022/06/26 06:27 UTC NOAA

TAF TIST 260520Z 2606/2706 10009KT P6SM VCSH SCT025 SCT040
FM261400 13015G20KT P6SM SCT035
FM262200 10010KT P6SM FEW030
FM270300 08007KT P6SM VCSH SCT025 SCT050

Example: see airport list